George Island, Canada
Current Conditions -  °F | °C
As of 2:00 AM on Friday 31 Oct 2014 (Local Time) from CYNE Reporting Station
Clear Clear  
Wind Chill: 14°   Ceiling: Unl
Heat Index: 14°   Visibility: 9mi
Dew Point: 12°   Wind: 3mph
Humidity: 93%   Direction: 180°S
Pressure: 30.53"   Gusts: NA
Location:  52.82°N, 97.6°W
Report Text: CYNE 310700Z AUTO 18003KT 9SM CLR M10/M11 A3053 RMK SLP356
Loading
Personal Weather Stations






























Interactive Weather Map
Tropical Storm Tracking
New forecast layout! Learn more

10-Day Weather Forecast

Advertisements
Track Severe Weather on mobile